sensor_id;sensor_type;location;lat;lon;timestamp;temperature;humidity
31038;DHT22;17702;47.590;7.666;2024-02-23T00:01:05;9.70;99.90
31038;DHT22;17702;47.590;7.666;2024-02-23T00:03:31;9.70;99.90
31038;DHT22;17702;47.590;7.666;2024-02-23T00:05:58;9.70;99.90
31038;DHT22;17702;47.590;7.666;2024-02-23T00:08:24;9.60;99.90
31038;DHT22;17702;47.590;7.666;2024-02-23T00:10:49;9.40;99.90
31038;DHT22;17702;47.590;7.666;2024-02-23T00:13:15;9.30;99.90
31038;DHT22;17702;47.590;7.666;2024-02-23T00:15:41;9.20;99.90
31038;DHT22;17702;47.590;7.666;2024-02-23T00:18:06;9.30;99.90
31038;DHT22;17702;47.590;7.666;2024-02-23T00:20:33;9.20;99.90
31038;DHT22;17702;47.590;7.666;2024-02-23T00:22:59;9.30;99.90
31038;DHT22;17702;47.590;7.666;2024-02-23T00:25:25;9.30;99.90
31038;DHT22;17702;47.590;7.666;2024-02-23T00:27:50;9.30;99.90
31038;DHT22;17702;47.590;7.666;2024-02-23T00:30:16;9.20;99.90
31038;DHT22;17702;47.590;7.666;2024-02-23T00:32:41;9.20;99.90
31038;DHT22;17702;47.590;7.666;2024-02-23T00:35:07;9.10;99.90
31038;DHT22;17702;47.590;7.666;2024-02-23T00:37:32;9.00;99.90
31038;DHT22;17702;47.590;7.666;2024-02-23T00:40:02;9.00;99.90
31038;DHT22;17702;47.590;7.666;2024-02-23T00:42:30;9.00;99.90
31038;DHT22;17702;47.590;7.666;2024-02-23T00:44:55;9.00;99.90
31038;DHT22;17702;47.590;7.666;2024-02-23T00:47:21;9.00;99.90
31038;DHT22;17702;47.590;7.666;2024-02-23T00:49:46;8.90;99.90
31038;DHT22;17702;47.590;7.666;2024-02-23T00:52:12;9.00;99.90
31038;DHT22;17702;47.590;7.666;2024-02-23T00:54:37;9.00;99.90
31038;DHT22;17702;47.590;7.666;2024-02-23T00:57:03;9.00;99.90
31038;DHT22;17702;47.590;7.666;2024-02-23T00:59:29;9.00;99.90
31038;DHT22;17702;47.590;7.666;2024-02-23T01:01:55;9.00;99.90
31038;DHT22;17702;47.590;7.666;2024-02-23T01:04:21;9.00;99.90
31038;DHT22;17702;47.590;7.666;2024-02-23T01:06:47;9.00;99.90
31038;DHT22;17702;47.590;7.666;2024-02-23T01:09:12;9.00;99.90
31038;DHT22;17702;47.590;7.666;2024-02-23T01:11:38;9.00;99.90
31038;DHT22;17702;47.590;7.666;2024-02-23T01:14:04;9.10;99.90
31038;DHT22;17702;47.590;7.666;2024-02-23T01:16:30;9.00;99.90
31038;DHT22;17702;47.590;7.666;2024-02-23T01:18:57;9.10;99.90
31038;DHT22;17702;47.590;7.666;2024-02-23T01:21:23;9.10;99.90
31038;DHT22;17702;47.590;7.666;2024-02-23T01:23:49;9.10;99.90
31038;DHT22;17702;47.590;7.666;2024-02-23T01:26:14;9.20;99.90
31038;DHT22;17702;47.590;7.666;2024-02-23T01:28:40;9.30;99.90
31038;DHT22;17702;47.590;7.666;2024-02-23T01:31:08;9.30;99.90
31038;DHT22;17702;47.590;7.666;2024-02-23T01:33:36;9.20;99.90
31038;DHT22;17702;47.590;7.666;2024-02-23T01:36:04;9.20;99.90
31038;DHT22;17702;47.590;7.666;2024-02-23T01:38:30;9.20;99.90
31038;DHT22;17702;47.590;7.666;2024-02-23T01:40:58;9.20;99.90
31038;DHT22;17702;47.590;7.666;2024-02-23T01:43:23;9.30;99.90
31038;DHT22;17702;47.590;7.666;2024-02-23T01:45:49;9.30;99.90
31038;DHT22;17702;47.590;7.666;2024-02-23T01:48:15;9.30;99.90
31038;DHT22;17702;47.590;7.666;2024-02-23T01:50:42;9.20;99.90
31038;DHT22;17702;47.590;7.666;2024-02-23T01:53:10;9.20;99.90
31038;DHT22;17702;47.590;7.666;2024-02-23T01:55:36;9.20;99.90
31038;DHT22;17702;47.590;7.666;2024-02-23T01:58:04;9.10;99.90
31038;DHT22;17702;47.590;7.666;2024-02-23T02:00:30;9.00;99.90
31038;DHT22;17702;47.590;7.666;2024-02-23T02:02:56;9.00;99.90
31038;DHT22;17702;47.590;7.666;2024-02-23T02:05:22;8.90;99.90
31038;DHT22;17702;47.590;7.666;2024-02-23T02:07:50;8.90;99.90
31038;DHT22;17702;47.590;7.666;2024-02-23T02:10:20;8.90;99.90
31038;DHT22;17702;47.590;7.666;2024-02-23T02:12:46;8.80;99.90
31038;DHT22;17702;47.590;7.666;2024-02-23T02:15:11;8.90;99.90
31038;DHT22;17702;47.590;7.666;2024-02-23T02:17:37;8.90;99.90
31038;DHT22;17702;47.590;7.666;2024-02-23T02:20:03;8.90;99.90
31038;DHT22;17702;47.590;7.666;2024-02-23T02:22:35;8.90;99.90
31038;DHT22;17702;47.590;7.666;2024-02-23T02:25:01;8.90;99.90
31038;DHT22;17702;47.590;7.666;2024-02-23T02:27:26;8.90;99.90
31038;DHT22;17702;47.590;7.666;2024-02-23T02:29:52;8.90;99.90
31038;DHT22;17702;47.590;7.666;2024-02-23T02:32:17;8.90;99.90
31038;DHT22;17702;47.590;7.666;2024-02-23T02:34:43;9.00;99.90
31038;DHT22;17702;47.590;7.666;2024-02-23T02:37:09;9.00;99.90
31038;DHT22;17702;47.590;7.666;2024-02-23T02:39:34;9.00;99.90
31038;DHT22;17702;47.590;7.666;2024-02-23T02:42:01;9.00;99.90
31038;DHT22;17702;47.590;7.666;2024-02-23T02:44:26;9.10;99.90
31038;DHT22;17702;47.590;7.666;2024-02-23T02:46:58;9.10;99.90
31038;DHT22;17702;47.590;7.666;2024-02-23T02:49:24;9.10;99.90
31038;DHT22;17702;47.590;7.666;2024-02-23T02:51:50;9.10;99.90
31038;DHT22;17702;47.590;7.666;2024-02-23T02:54:16;9.10;99.90
31038;DHT22;17702;47.590;7.666;2024-02-23T02:56:47;9.10;99.90
31038;DHT22;17702;47.590;7.666;2024-02-23T02:59:13;9.20;99.90
31038;DHT22;17702;47.590;7.666;2024-02-23T03:01:39;9.20;99.90
31038;DHT22;17702;47.590;7.666;2024-02-23T03:04:05;9.20;99.90
31038;DHT22;17702;47.590;7.666;2024-02-23T03:06:30;9.20;99.90
31038;DHT22;17702;47.590;7.666;2024-02-23T03:08:56;9.20;99.90
31038;DHT22;17702;47.590;7.666;2024-02-23T03:11:21;9.20;99.90
31038;DHT22;17702;47.590;7.666;2024-02-23T03:13:47;9.20;99.90
31038;DHT22;17702;47.590;7.666;2024-02-23T03:16:17;9.20;99.90
31038;DHT22;17702;47.590;7.666;2024-02-23T03:18:43;9.20;99.90
31038;DHT22;17702;47.590;7.666;2024-02-23T03:21:08;9.20;99.90
31038;DHT22;17702;47.590;7.666;2024-02-23T03:23:35;9.20;99.90
31038;DHT22;17702;47.590;7.666;2024-02-23T03:26:01;9.20;99.90
31038;DHT22;17702;47.590;7.666;2024-02-23T03:28:26;9.20;99.90
31038;DHT22;17702;47.590;7.666;2024-02-23T03:30:52;9.20;99.90
31038;DHT22;17702;47.590;7.666;2024-02-23T03:33:18;9.20;99.90
31038;DHT22;17702;47.590;7.666;2024-02-23T03:35:43;9.20;99.90
31038;DHT22;17702;47.590;7.666;2024-02-23T03:38:09;9.20;99.90
31038;DHT22;17702;47.590;7.666;2024-02-23T03:40:34;9.20;99.90
31038;DHT22;17702;47.590;7.666;2024-02-23T03:43:01;9.30;99.90
31038;DHT22;17702;47.590;7.666;2024-02-23T03:45:27;9.30;99.90
31038;DHT22;17702;47.590;7.666;2024-02-23T03:47:53;9.20;99.90
31038;DHT22;17702;47.590;7.666;2024-02-23T03:50:19;9.20;99.90
31038;DHT22;17702;47.590;7.666;2024-02-23T03:52:44;9.10;99.90
31038;DHT22;17702;47.590;7.666;2024-02-23T03:55:10;9.00;99.90
31038;DHT22;17702;47.590;7.666;2024-02-23T03:57:36;9.10;99.90
31038;DHT22;17702;47.590;7.666;2024-02-23T04:00:01;9.00;99.90
31038;DHT22;17702;47.590;7.666;2024-02-23T04:02:28;9.00;99.90
31038;DHT22;17702;47.590;7.666;2024-02-23T04:04:53;8.90;99.90
31038;DHT22;17702;47.590;7.666;2024-02-23T04:07:19;8.90;99.90
31038;DHT22;17702;47.590;7.666;2024-02-23T04:09:45;8.70;99.90
31038;DHT22;17702;47.590;7.666;2024-02-23T04:12:10;8.80;99.90
31038;DHT22;17702;47.590;7.666;2024-02-23T04:14:36;8.80;99.90
31038;DHT22;17702;47.590;7.666;2024-02-23T04:17:05;8.80;99.90
31038;DHT22;17702;47.590;7.666;2024-02-23T04:19:30;8.80;99.90
31038;DHT22;17702;47.590;7.666;2024-02-23T04:21:56;8.70;99.90
31038;DHT22;17702;47.590;7.666;2024-02-23T04:24:22;8.70;99.90
31038;DHT22;17702;47.590;7.666;2024-02-23T04:26:47;8.60;99.90
31038;DHT22;17702;47.590;7.666;2024-02-23T04:29:13;8.50;99.90
31038;DHT22;17702;47.590;7.666;2024-02-23T04:31:38;8.50;99.90
31038;DHT22;17702;47.590;7.666;2024-02-23T04:34:04;8.60;99.90
31038;DHT22;17702;47.590;7.666;2024-02-23T04:36:29;8.60;99.90
31038;DHT22;17702;47.590;7.666;2024-02-23T04:38:55;8.50;99.90
31038;DHT22;17702;47.590;7.666;2024-02-23T04:41:21;8.60;99.90
31038;DHT22;17702;47.590;7.666;2024-02-23T04:43:47;8.60;99.90
31038;DHT22;17702;47.590;7.666;2024-02-23T04:46:13;8.60;99.90
31038;DHT22;17702;47.590;7.666;2024-02-23T04:48:39;8.60;99.90
31038;DHT22;17702;47.590;7.666;2024-02-23T04:51:04;8.60;99.90
31038;DHT22;17702;47.590;7.666;2024-02-23T04:53:31;8.50;99.90
31038;DHT22;17702;47.590;7.666;2024-02-23T04:56:01;8.50;99.90
31038;DHT22;17702;47.590;7.666;2024-02-23T04:58:26;8.50;99.90
31038;DHT22;17702;47.590;7.666;2024-02-23T05:00:52;8.40;99.90
31038;DHT22;17702;47.590;7.666;2024-02-23T05:03:17;8.40;99.90
31038;DHT22;17702;47.590;7.666;2024-02-23T05:05:43;8.40;99.90
31038;DHT22;17702;47.590;7.666;2024-02-23T05:08:08;8.30;99.90
31038;DHT22;17702;47.590;7.666;2024-02-23T05:10:34;8.20;99.90
31038;DHT22;17702;47.590;7.666;2024-02-23T05:13:00;8.10;99.90
31038;DHT22;17702;47.590;7.666;2024-02-23T05:15:25;8.10;99.90
31038;DHT22;17702;47.590;7.666;2024-02-23T05:17:51;8.10;99.90
31038;DHT22;17702;47.590;7.666;2024-02-23T05:20:16;8.20;99.90
31038;DHT22;17702;47.590;7.666;2024-02-23T05:22:42;8.20;99.90
31038;DHT22;17702;47.590;7.666;2024-02-23T05:25:08;8.10;99.90
31038;DHT22;17702;47.590;7.666;2024-02-23T05:27:34;8.10;99.90
31038;DHT22;17702;47.590;7.666;2024-02-23T05:29:59;7.90;99.90
31038;DHT22;17702;47.590;7.666;2024-02-23T05:32:25;7.90;99.90
31038;DHT22;17702;47.590;7.666;2024-02-23T05:34:51;7.80;99.90
31038;DHT22;17702;47.590;7.666;2024-02-23T05:37:18;7.70;99.90
31038;DHT22;17702;47.590;7.666;2024-02-23T05:39:44;7.60;99.90
31038;DHT22;17702;47.590;7.666;2024-02-23T05:42:11;7.70;99.90
31038;DHT22;17702;47.590;7.666;2024-02-23T05:44:37;7.60;99.90
31038;DHT22;17702;47.590;7.666;2024-02-23T05:47:02;7.60;99.90
31038;DHT22;17702;47.590;7.666;2024-02-23T05:49:28;7.50;99.90
31038;DHT22;17702;47.590;7.666;2024-02-23T05:51:54;7.40;99.90
31038;DHT22;17702;47.590;7.666;2024-02-23T05:54:20;7.30;99.90
31038;DHT22;17702;47.590;7.666;2024-02-23T05:56:46;7.30;99.90
31038;DHT22;17702;47.590;7.666;2024-02-23T05:59:11;7.20;99.90
31038;DHT22;17702;47.590;7.666;2024-02-23T06:01:37;7.20;99.90
31038;DHT22;17702;47.590;7.666;2024-02-23T06:04:03;7.20;99.90
31038;DHT22;17702;47.590;7.666;2024-02-23T06:06:28;7.20;99.90
31038;DHT22;17702;47.590;7.666;2024-02-23T06:08:54;7.20;99.90
31038;DHT22;17702;47.590;7.666;2024-02-23T06:11:20;7.20;99.90
31038;DHT22;17702;47.590;7.666;2024-02-23T06:13:45;7.20;99.90
31038;DHT22;17702;47.590;7.666;2024-02-23T06:16:11;7.30;99.90
31038;DHT22;17702;47.590;7.666;2024-02-23T06:18:38;7.20;99.90
31038;DHT22;17702;47.590;7.666;2024-02-23T06:21:15;7.20;99.90
31038;DHT22;17702;47.590;7.666;2024-02-23T06:23:42;7.30;99.90
31038;DHT22;17702;47.590;7.666;2024-02-23T06:26:07;7.30;99.90
31038;DHT22;17702;47.590;7.666;2024-02-23T06:28:33;7.30;99.90
31038;DHT22;17702;47.590;7.666;2024-02-23T06:30:59;7.20;99.90
31038;DHT22;17702;47.590;7.666;2024-02-23T06:33:24;7.10;99.90
31038;DHT22;17702;47.590;7.666;2024-02-23T06:35:50;7.00;99.90
31038;DHT22;17702;47.590;7.666;2024-02-23T06:38:17;6.90;99.90
31038;DHT22;17702;47.590;7.666;2024-02-23T06:40:43;6.80;99.90
31038;DHT22;17702;47.590;7.666;2024-02-23T06:43:09;6.70;99.90
31038;DHT22;17702;47.590;7.666;2024-02-23T06:45:34;6.70;99.90
31038;DHT22;17702;47.590;7.666;2024-02-23T06:48:00;6.70;99.90
31038;DHT22;17702;47.590;7.666;2024-02-23T06:50:25;6.70;99.90
31038;DHT22;17702;47.590;7.666;2024-02-23T06:52:51;6.80;99.90
31038;DHT22;17702;47.590;7.666;2024-02-23T06:55:16;6.80;99.90
31038;DHT22;17702;47.590;7.666;2024-02-23T06:57:42;6.80;99.90
31038;DHT22;17702;47.590;7.666;2024-02-23T07:00:08;6.80;99.90
31038;DHT22;17702;47.590;7.666;2024-02-23T07:02:34;6.80;99.90
31038;DHT22;17702;47.590;7.666;2024-02-23T07:05:02;6.90;99.90
31038;DHT22;17702;47.590;7.666;2024-02-23T07:07:30;6.80;99.90
31038;DHT22;17702;47.590;7.666;2024-02-23T07:09:56;6.80;99.90
31038;DHT22;17702;47.590;7.666;2024-02-23T07:12:21;6.80;99.90
31038;DHT22;17702;47.590;7.666;2024-02-23T07:14:48;6.80;99.90
31038;DHT22;17702;47.590;7.666;2024-02-23T07:17:17;6.80;99.90
31038;DHT22;17702;47.590;7.666;2024-02-23T07:19:42;6.80;99.90
31038;DHT22;17702;47.590;7.666;2024-02-23T07:22:08;6.70;99.90
31038;DHT22;17702;47.590;7.666;2024-02-23T07:24:33;6.60;99.90
31038;DHT22;17702;47.590;7.666;2024-02-23T07:26:59;6.60;99.90
31038;DHT22;17702;47.590;7.666;2024-02-23T07:29:24;6.70;99.90
31038;DHT22;17702;47.590;7.666;2024-02-23T07:31:50;6.70;99.90
31038;DHT22;17702;47.590;7.666;2024-02-23T07:34:16;6.70;99.90
31038;DHT22;17702;47.590;7.666;2024-02-23T07:36:41;6.70;99.90
31038;DHT22;17702;47.590;7.666;2024-02-23T07:39:08;6.70;99.90
31038;DHT22;17702;47.590;7.666;2024-02-23T07:41:34;6.80;99.90
31038;DHT22;17702;47.590;7.666;2024-02-23T07:43:59;6.80;99.90
31038;DHT22;17702;47.590;7.666;2024-02-23T07:46:25;6.90;99.90
31038;DHT22;17702;47.590;7.666;2024-02-23T07:48:51;6.90;99.90
31038;DHT22;17702;47.590;7.666;2024-02-23T07:51:16;6.90;99.90
31038;DHT22;17702;47.590;7.666;2024-02-23T07:53:42;7.00;99.90
31038;DHT22;17702;47.590;7.666;2024-02-23T07:56:07;7.10;99.90
31038;DHT22;17702;47.590;7.666;2024-02-23T07:58:33;7.10;99.90
31038;DHT22;17702;47.590;7.666;2024-02-23T08:00:59;7.10;99.90
31038;DHT22;17702;47.590;7.666;2024-02-23T08:03:24;7.20;99.90
31038;DHT22;17702;47.590;7.666;2024-02-23T08:05:50;7.20;99.90
31038;DHT22;17702;47.590;7.666;2024-02-23T08:08:15;7.30;99.90
31038;DHT22;17702;47.590;7.666;2024-02-23T08:10:41;7.50;99.90
31038;DHT22;17702;47.590;7.666;2024-02-23T08:13:06;7.70;99.90
31038;DHT22;17702;47.590;7.666;2024-02-23T08:15:32;7.80;99.90
31038;DHT22;17702;47.590;7.666;2024-02-23T08:17:57;8.00;99.90
31038;DHT22;17702;47.590;7.666;2024-02-23T08:20:23;8.20;99.90
31038;DHT22;17702;47.590;7.666;2024-02-23T08:22:49;8.20;99.90
31038;DHT22;17702;47.590;7.666;2024-02-23T08:25:14;8.30;99.90
31038;DHT22;17702;47.590;7.666;2024-02-23T08:27:40;8.40;99.90
31038;DHT22;17702;47.590;7.666;2024-02-23T08:30:06;8.50;99.90
31038;DHT22;17702;47.590;7.666;2024-02-23T08:32:32;8.70;99.90
31038;DHT22;17702;47.590;7.666;2024-02-23T08:34:58;8.80;99.90
31038;DHT22;17702;47.590;7.666;2024-02-23T08:37:25;9.00;99.90
31038;DHT22;17702;47.590;7.666;2024-02-23T08:39:52;9.20;99.90
31038;DHT22;17702;47.590;7.666;2024-02-23T08:42:17;9.30;99.90
31038;DHT22;17702;47.590;7.666;2024-02-23T08:44:43;9.40;99.90
31038;DHT22;17702;47.590;7.666;2024-02-23T08:47:08;9.50;99.90
31038;DHT22;17702;47.590;7.666;2024-02-23T08:49:34;9.70;99.90
31038;DHT22;17702;47.590;7.666;2024-02-23T08:52:00;9.80;99.90
31038;DHT22;17702;47.590;7.666;2024-02-23T08:54:25;10.00;99.70
31038;DHT22;17702;47.590;7.666;2024-02-23T08:56:51;10.20;99.20
31038;DHT22;17702;47.590;7.666;2024-02-23T08:59:16;10.40;98.30
31038;DHT22;17702;47.590;7.666;2024-02-23T09:01:42;10.60;97.80
31038;DHT22;17702;47.590;7.666;2024-02-23T09:04:09;10.70;96.40
31038;DHT22;17702;47.590;7.666;2024-02-23T09:06:35;10.90;93.90
31038;DHT22;17702;47.590;7.666;2024-02-23T09:09:00;11.10;94.70
31038;DHT22;17702;47.590;7.666;2024-02-23T09:11:26;11.30;93.50
31038;DHT22;17702;47.590;7.666;2024-02-23T09:13:51;11.40;94.60
31038;DHT22;17702;47.590;7.666;2024-02-23T09:16:17;11.70;93.80
31038;DHT22;17702;47.590;7.666;2024-02-23T09:18:44;11.80;90.10
31038;DHT22;17702;47.590;7.666;2024-02-23T09:21:10;11.90;85.30
31038;DHT22;17702;47.590;7.666;2024-02-23T09:23:35;12.00;82.60
31038;DHT22;17702;47.590;7.666;2024-02-23T09:26:01;12.10;80.30
31038;DHT22;17702;47.590;7.666;2024-02-23T09:28:26;12.20;77.40
31038;DHT22;17702;47.590;7.666;2024-02-23T09:30:52;12.30;82.80
31038;DHT22;17702;47.590;7.666;2024-02-23T09:33:17;12.40;79.50
31038;DHT22;17702;47.590;7.666;2024-02-23T09:35:43;12.50;76.80
31038;DHT22;17702;47.590;7.666;2024-02-23T09:38:08;12.60;74.60
31038;DHT22;17702;47.590;7.666;2024-02-23T09:40:34;12.50;73.60
31038;DHT22;17702;47.590;7.666;2024-02-23T09:42:59;12.50;77.60
31038;DHT22;17702;47.590;7.666;2024-02-23T09:45:25;12.40;74.40
31038;DHT22;17702;47.590;7.666;2024-02-23T09:47:53;12.40;74.60
31038;DHT22;17702;47.590;7.666;2024-02-23T09:50:23;12.50;75.80
31038;DHT22;17702;47.590;7.666;2024-02-23T09:52:48;12.60;78.00
31038;DHT22;17702;47.590;7.666;2024-02-23T09:55:18;12.70;74.20
31038;DHT22;17702;47.590;7.666;2024-02-23T09:57:45;12.90;75.20
31038;DHT22;17702;47.590;7.666;2024-02-23T10:00:13;13.00;73.50
31038;DHT22;17702;47.590;7.666;2024-02-23T10:02:41;13.20;69.00
31038;DHT22;17702;47.590;7.666;2024-02-23T10:05:07;13.20;70.60
31038;DHT22;17702;47.590;7.666;2024-02-23T10:07:33;13.40;68.60
31038;DHT22;17702;47.590;7.666;2024-02-23T10:09:59;13.50;65.70
31038;DHT22;17702;47.590;7.666;2024-02-23T10:12:24;13.50;65.40
31038;DHT22;17702;47.590;7.666;2024-02-23T10:14:50;13.50;64.60
31038;DHT22;17702;47.590;7.666;2024-02-23T10:17:15;13.60;67.80
31038;DHT22;17702;47.590;7.666;2024-02-23T10:19:41;13.70;64.10
31038;DHT22;17702;47.590;7.666;2024-02-23T10:22:06;13.70;66.60
31038;DHT22;17702;47.590;7.666;2024-02-23T10:24:32;13.80;64.80
31038;DHT22;17702;47.590;7.666;2024-02-23T10:26:57;13.90;62.80
31038;DHT22;17702;47.590;7.666;2024-02-23T10:29:23;13.90;62.30
31038;DHT22;17702;47.590;7.666;2024-02-23T10:31:51;14.00;60.60
31038;DHT22;17702;47.590;7.666;2024-02-23T10:34:19;13.90;60.90
31038;DHT22;17702;47.590;7.666;2024-02-23T10:36:46;14.00;65.20
31038;DHT22;17702;47.590;7.666;2024-02-23T10:39:18;14.20;64.90
31038;DHT22;17702;47.590;7.666;2024-02-23T10:42:03;14.30;65.70
31038;DHT22;17702;47.590;7.666;2024-02-23T10:44:29;14.40;63.20
31038;DHT22;17702;47.590;7.666;2024-02-23T10:46:55;14.50;59.80
31038;DHT22;17702;47.590;7.666;2024-02-23T10:49:23;14.60;60.60
31038;DHT22;17702;47.590;7.666;2024-02-23T10:51:52;14.70;64.60
31038;DHT22;17702;47.590;7.666;2024-02-23T10:54:19;14.70;59.10
31038;DHT22;17702;47.590;7.666;2024-02-23T10:56:48;14.80;60.90
31038;DHT22;17702;47.590;7.666;2024-02-23T10:59:14;14.90;59.00
31038;DHT22;17702;47.590;7.666;2024-02-23T11:01:45;14.90;56.40
31038;DHT22;17702;47.590;7.666;2024-02-23T11:04:12;15.00;60.60
31038;DHT22;17702;47.590;7.666;2024-02-23T11:06:39;15.20;57.00
31038;DHT22;17702;47.590;7.666;2024-02-23T11:09:12;15.30;59.90
31038;DHT22;17702;47.590;7.666;2024-02-23T11:11:38;15.40;56.90
31038;DHT22;17702;47.590;7.666;2024-02-23T11:14:08;15.40;57.10
31038;DHT22;17702;47.590;7.666;2024-02-23T11:16:39;15.40;57.20
31038;DHT22;17702;47.590;7.666;2024-02-23T11:19:08;15.50;56.50
31038;DHT22;17702;47.590;7.666;2024-02-23T11:21:38;15.50;58.00
31038;DHT22;17702;47.590;7.666;2024-02-23T11:24:04;15.50;56.10
31038;DHT22;17702;47.590;7.666;2024-02-23T11:26:30;15.40;54.00
31038;DHT22;17702;47.590;7.666;2024-02-23T11:28:57;15.30;58.30
31038;DHT22;17702;47.590;7.666;2024-02-23T11:31:25;15.30;57.30
31038;DHT22;17702;47.590;7.666;2024-02-23T11:33:57;15.20;56.30
31038;DHT22;17702;47.590;7.666;2024-02-23T11:36:30;15.20;57.80
31038;DHT22;17702;47.590;7.666;2024-02-23T11:38:58;15.30;53.30
31038;DHT22;17702;47.590;7.666;2024-02-23T11:41:24;15.30;53.10
31038;DHT22;17702;47.590;7.666;2024-02-23T11:43:51;15.20;55.00
31038;DHT22;17702;47.590;7.666;2024-02-23T11:46:18;15.20;56.50
31038;DHT22;17702;47.590;7.666;2024-02-23T11:48:44;15.30;58.10
31038;DHT22;17702;47.590;7.666;2024-02-23T11:51:10;15.30;57.90
31038;DHT22;17702;47.590;7.666;2024-02-23T11:53:38;15.20;57.00
31038;DHT22;17702;47.590;7.666;2024-02-23T11:56:05;15.10;56.90
31038;DHT22;17702;47.590;7.666;2024-02-23T11:58:32;14.90;57.00
31038;DHT22;17702;47.590;7.666;2024-02-23T12:00:59;14.70;57.00
31038;DHT22;17702;47.590;7.666;2024-02-23T12:03:26;14.70;58.40
31038;DHT22;17702;47.590;7.666;2024-02-23T12:05:52;14.60;59.70
31038;DHT22;17702;47.590;7.666;2024-02-23T12:08:17;14.60;58.60
31038;DHT22;17702;47.590;7.666;2024-02-23T12:10:44;14.50;57.40
31038;DHT22;17702;47.590;7.666;2024-02-23T12:13:10;14.40;58.10
31038;DHT22;17702;47.590;7.666;2024-02-23T12:15:35;14.30;56.50
31038;DHT22;17702;47.590;7.666;2024-02-23T12:18:03;14.20;57.50
31038;DHT22;17702;47.590;7.666;2024-02-23T12:20:32;14.20;56.40
31038;DHT22;17702;47.590;7.666;2024-02-23T12:22:58;14.10;54.70
31038;DHT22;17702;47.590;7.666;2024-02-23T12:25:25;14.00;58.00
31038;DHT22;17702;47.590;7.666;2024-02-23T12:27:58;13.90;56.20
31038;DHT22;17702;47.590;7.666;2024-02-23T12:30:23;13.80;56.60
31038;DHT22;17702;47.590;7.666;2024-02-23T12:32:49;13.80;57.40
31038;DHT22;17702;47.590;7.666;2024-02-23T12:35:15;13.70;58.20
31038;DHT22;17702;47.590;7.666;2024-02-23T12:37:43;13.70;57.40
31038;DHT22;17702;47.590;7.666;2024-02-23T12:40:09;13.90;55.50
31038;DHT22;17702;47.590;7.666;2024-02-23T12:42:34;14.00;57.00
31038;DHT22;17702;47.590;7.666;2024-02-23T12:45:01;14.20;58.00
31038;DHT22;17702;47.590;7.666;2024-02-23T12:47:26;14.50;57.20
31038;DHT22;17702;47.590;7.666;2024-02-23T12:49:52;14.60;55.00
31038;DHT22;17702;47.590;7.666;2024-02-23T12:52:17;14.60;55.20
31038;DHT22;17702;47.590;7.666;2024-02-23T12:54:43;14.60;57.10
31038;DHT22;17702;47.590;7.666;2024-02-23T12:57:08;14.60;57.10
31038;DHT22;17702;47.590;7.666;2024-02-23T12:59:34;14.50;55.20
31038;DHT22;17702;47.590;7.666;2024-02-23T13:01:59;14.30;54.40
31038;DHT22;17702;47.590;7.666;2024-02-23T13:04:25;14.30;55.60
31038;DHT22;17702;47.590;7.666;2024-02-23T13:06:51;14.20;55.50
31038;DHT22;17702;47.590;7.666;2024-02-23T13:09:16;14.20;54.90
31038;DHT22;17702;47.590;7.666;2024-02-23T13:11:42;14.20;56.30
31038;DHT22;17702;47.590;7.666;2024-02-23T13:14:08;14.10;54.90
31038;DHT22;17702;47.590;7.666;2024-02-23T13:16:34;14.00;56.10
31038;DHT22;17702;47.590;7.666;2024-02-23T13:19:00;14.00;55.20
31038;DHT22;17702;47.590;7.666;2024-02-23T13:21:25;14.00;56.80
31038;DHT22;17702;47.590;7.666;2024-02-23T13:23:51;14.10;58.00
31038;DHT22;17702;47.590;7.666;2024-02-23T13:26:17;14.20;55.80
31038;DHT22;17702;47.590;7.666;2024-02-23T13:28:43;14.40;53.40
31038;DHT22;17702;47.590;7.666;2024-02-23T13:31:09;14.50;55.60
31038;DHT22;17702;47.590;7.666;2024-02-23T13:33:35;14.50;55.90
31038;DHT22;17702;47.590;7.666;2024-02-23T13:36:00;14.50;57.90
31038;DHT22;17702;47.590;7.666;2024-02-23T13:38:26;14.40;56.00
31038;DHT22;17702;47.590;7.666;2024-02-23T13:40:51;14.50;59.30
31038;DHT22;17702;47.590;7.666;2024-02-23T13:43:17;14.70;58.70
31038;DHT22;17702;47.590;7.666;2024-02-23T13:45:50;15.00;55.90
31038;DHT22;17702;47.590;7.666;2024-02-23T13:48:19;15.20;57.30
31038;DHT22;17702;47.590;7.666;2024-02-23T13:50:48;15.60;57.20
31038;DHT22;17702;47.590;7.666;2024-02-23T13:53:14;15.90;56.20
31038;DHT22;17702;47.590;7.666;2024-02-23T13:55:40;16.10;54.70
31038;DHT22;17702;47.590;7.666;2024-02-23T13:58:08;16.20;52.90
31038;DHT22;17702;47.590;7.666;2024-02-23T14:00:33;16.20;52.90
31038;DHT22;17702;47.590;7.666;2024-02-23T14:02:59;16.00;53.70
31038;DHT22;17702;47.590;7.666;2024-02-23T14:05:25;15.60;52.30
31038;DHT22;17702;47.590;7.666;2024-02-23T14:07:51;15.30;53.10
31038;DHT22;17702;47.590;7.666;2024-02-23T14:10:18;15.10;55.40
31038;DHT22;17702;47.590;7.666;2024-02-23T14:12:43;14.90;56.80
31038;DHT22;17702;47.590;7.666;2024-02-23T14:15:09;14.80;56.20
31038;DHT22;17702;47.590;7.666;2024-02-23T14:17:36;14.70;55.00
31038;DHT22;17702;47.590;7.666;2024-02-23T14:20:02;14.60;55.60
31038;DHT22;17702;47.590;7.666;2024-02-23T14:22:29;14.60;56.10
31038;DHT22;17702;47.590;7.666;2024-02-23T14:24:54;14.60;56.20
31038;DHT22;17702;47.590;7.666;2024-02-23T14:27:20;14.50;55.70
31038;DHT22;17702;47.590;7.666;2024-02-23T14:29:46;14.50;54.30
31038;DHT22;17702;47.590;7.666;2024-02-23T14:32:16;14.40;56.70
31038;DHT22;17702;47.590;7.666;2024-02-23T14:34:42;14.40;58.80
31038;DHT22;17702;47.590;7.666;2024-02-23T14:37:09;14.40;58.10
31038;DHT22;17702;47.590;7.666;2024-02-23T14:39:34;14.30;59.10
31038;DHT22;17702;47.590;7.666;2024-02-23T14:42:00;14.20;62.00
31038;DHT22;17702;47.590;7.666;2024-02-23T14:44:26;14.10;61.30
31038;DHT22;17702;47.590;7.666;2024-02-23T14:46:52;14.00;59.20
31038;DHT22;17702;47.590;7.666;2024-02-23T14:49:18;13.90;58.30
31038;DHT22;17702;47.590;7.666;2024-02-23T14:51:43;13.80;57.00
31038;DHT22;17702;47.590;7.666;2024-02-23T14:54:11;13.70;57.60
31038;DHT22;17702;47.590;7.666;2024-02-23T14:56:38;13.80;59.20
31038;DHT22;17702;47.590;7.666;2024-02-23T14:59:06;13.80;56.90
31038;DHT22;17702;47.590;7.666;2024-02-23T15:01:36;13.70;60.00
31038;DHT22;17702;47.590;7.666;2024-02-23T15:04:01;13.70;57.30
31038;DHT22;17702;47.590;7.666;2024-02-23T15:06:27;13.60;56.90
31038;DHT22;17702;47.590;7.666;2024-02-23T15:08:53;13.50;56.90
31038;DHT22;17702;47.590;7.666;2024-02-23T15:11:18;13.50;57.50
31038;DHT22;17702;47.590;7.666;2024-02-23T15:13:45;13.60;59.20
31038;DHT22;17702;47.590;7.666;2024-02-23T15:16:11;13.60;58.30
31038;DHT22;17702;47.590;7.666;2024-02-23T15:18:36;13.70;58.10
31038;DHT22;17702;47.590;7.666;2024-02-23T15:21:02;13.60;57.80
31038;DHT22;17702;47.590;7.666;2024-02-23T15:23:28;13.60;57.70
31038;DHT22;17702;47.590;7.666;2024-02-23T15:25:53;13.60;59.10
31038;DHT22;17702;47.590;7.666;2024-02-23T15:28:19;13.60;60.40
31038;DHT22;17702;47.590;7.666;2024-02-23T15:30:49;13.50;61.00
31038;DHT22;17702;47.590;7.666;2024-02-23T15:33:15;13.50;58.20